• Join FlightAware (Why Join?)
  • Login
  • US Flag 
05:17AM EDT


 

Airport Tracker/Info


-or-


 

Live Flight TrackerFlight Track Log ✈ SWA2728 ✈ 09-Mar-2013 ✈ KONT - KOAK

Flight Track Log - Related Links

Times and Time Zones

All times are in EST time to prevent confusion due to time zone crossing. See the SWA2728 flight status page for this flight to view local times or setup timezone preferences in your user account.

Time Position Orientation Groundspeed Altitude Reporting Facility
EST Latitude Longitude Course Direction KTS MPH feet Rate Location/Type
12:03AM 34.0500 -117.6333 287° West 165 190 2,600  Level Southern California TRACON
12:04AM 34.0667 -117.7000 287° West 231 266 5,900 3,840 Climbing Southern California TRACON
12:06AM 34.1444 -117.8392 304° West 266 306 14,200 3,720 Climbing Los Angeles Center
12:07AM 34.1936 -117.9244 305° West 295 339 16,900 2,940 Climbing Los Angeles Center
12:08AM 34.2497 -118.0250 304° West 355 409 20,200 3,240 Climbing Los Angeles Center
12:09AM 34.3094 -118.1281 305° West 375 432 23,600 3,180 Climbing Los Angeles Center
12:10AM 34.3778 -118.2272 310° West 385 443 26,700 2,700 Climbing Los Angeles Center
12:11AM 34.4481 -118.3292 310° West 393 452 29,100 2,340 Climbing Los Angeles Center
12:12AM 34.5353 -118.4614 309° West 416 479 31,500 2,400 Climbing Los Angeles Center
12:13AM 34.6097 -118.5719 309° West 424 488 34,100 2,160 Climbing Los Angeles Center
12:14AM 34.6806 -118.6792 309° West 408 470 36,000 900 Climbing Los Angeles Center
12:15AM 34.7494 -118.7811 309° West 392 451 36,000  Level Los Angeles Center
12:16AM 34.8208 -118.8817 311° West 395 455 36,000  Level Los Angeles Center
12:17AM 34.8981 -118.9547 322° Northwest 386 444 36,000  Level Los Angeles Center
12:18AM 34.9975 -119.0514 321° Northwest 382 440 36,000  Level Los Angeles Center
12:19AM 35.0803 -119.1333 321° Northwest 384 442 36,000  Level Los Angeles Center
12:20AM 35.1664 -119.2156 322° Northwest 392 451 36,000  Level Los Angeles Center
12:21AM 35.2514 -119.2981 322° Northwest 391 450 36,000  Level Los Angeles Center
12:22AM 35.3317 -119.3778 321° Northwest 377 434 36,000  Level Los Angeles Center
12:23AM 35.4142 -119.4592 321° Northwest 380 437 36,000  Level Los Angeles Center
12:24AM 35.4278 -119.4728 321° Northwest 377 434 36,000  Level Oakland Center
12:25AM 35.5097 -119.5544 321° Northwest 380 437 36,000  Level Oakland Center
12:26AM 35.5914 -119.6342 322° Northwest 378 435 36,000  Level Oakland Center
12:27AM 35.6911 -119.7350 321° Northwest 384 442 36,000  Level Oakland Center
12:28AM 35.7742 -119.8192 321° Northwest 388 447 36,000  Level Oakland Center
12:29AM 35.8569 -119.9011 321° Northwest 387 445 36,000  Level Oakland Center
12:30AM 35.9392 -119.9844 321° Northwest 385 443 36,000  Level Oakland Center
12:31AM 36.0219 -120.0669 321° Northwest 385 443 36,000  Level Oakland Center
12:32AM 36.1042 -120.1489 321° Northwest 383 441 36,000  Level Oakland Center
12:33AM 36.1853 -120.2322 320° Northwest 382 440 36,000  Level Oakland Center
12:34AM 36.2672 -120.3167 320° Northwest 383 441 36,000  Level Oakland Center
12:35AM 36.3497 -120.4019 320° Northwest 386 444 36,000 -960 Level Oakland Center
12:36AM 36.4322 -120.4867 320° Northwest 386 444 34,100 -2,040 Descending Oakland Center
12:37AM 36.5133 -120.5706 320° Northwest 383 441 32,000 -2,040 Descending Oakland Center
12:38AM 36.5906 -120.6503 320° Northwest 367 422 30,000 -2,040 Descending Oakland Center
12:39AM 36.6647 -120.7278 320° Northwest 353 406 28,000 -1,980 Descending Oakland Center
12:40AM 36.7347 -120.8011 320° Northwest 335 386 26,100 -2,100 Descending Oakland Center
12:41AM 36.8200 -120.8919 320° Northwest 335 386 23,800 -2,040 Descending Oakland Center
12:42AM 36.8872 -120.9719 316° Northwest 334 384 22,000 -1,860 Descending Oakland Center
12:43AM 36.9544 -121.0489 318° Northwest 330 380 20,100 -1,920 Descending Oakland Center
12:44AM 37.0208 -121.1258 317° Northwest 326 375 18,200 -1,860 Descending Oakland Center
12:45AM 37.0883 -121.2039 317° Northwest 323 372 16,400 -1,620 Descending Oakland Center
12:46AM 37.1519 -121.2781 317° Northwest 320 368 15,000 -1,500 Descending Oakland Center
12:47AM 37.2161 -121.3528 317° Northwest 317 365 13,400 -1,800 Descending Oakland Center
12:48AM 37.2731 -121.4200 317° Northwest 283 326 11,400 -1,740 Descending Oakland Center
12:49AM 37.3297 -121.4856 317° Northwest 277 319 10,000 -1,200 Descending Oakland Center
12:50AM 37.3828 -121.5486 317° Northwest 265 305 9,100 -1,320 Descending Oakland Center
12:51AM 37.4333 -121.6000 321° Northwest 265 305 7,600 -1,680 Descending Northern Cal TRACON
12:52AM 37.4667 -121.6833 297° West 269 310 6,300 -840 Descending Northern Cal TRACON
12:53AM 37.5000 -121.7500 302° West 254 292 6,100 -660 Descending Northern Cal TRACON
12:54AM 37.5333 -121.8333 297° West 254 292 5,000 -840 Descending Northern Cal TRACON
12:55AM 37.5500 -121.9167 284° West 219 252 4,400 -720 Descending Northern Cal TRACON
12:56AM 37.5833 -121.9833 302° West 219 252 3,500 -780 Descending Northern Cal TRACON
12:57AM 37.6000 -122.0500 288° West 193 222 2,900 -600 Descending Northern Cal TRACON
12:58AM 37.6167 -122.1000 293° West 158 182 2,300 -600 Descending Northern Cal TRACON
12:59AM 37.6500 -122.1333 322° Northwest 126 145 1,700 -600 Descending Northern Cal TRACON
12:59AM 37.6481 -122.1361 229° Southwest 142 163 1,600 -660 Descending Oakland Center
01:00AM 37.6711 -122.1706 310° West 133 153 900 -660 Descending Oakland Center
01:01AM 37.6942 -122.2031 312° West 128 147 300 9,420 Descending Oakland Center
01:02AM 37.7106 -122.2283 309° West 104 120 20,000 9,720 Climbing Oakland Center
01:03AM 37.7131 -122.2292 345° North 46 53 20,000  Level Oakland Center
01:04AM 37.7094 -122.2231 127° Southeast 28 32 20,000  Level Oakland Center
01:05AM 37.7053 -122.2161 127° Southeast 25 29 20,000  Level Oakland Center
01:06AM 37.7081 -122.2136 35° Northeast 19 22 20,000  Level Oakland Center